sensor_id;sensor_type;location;lat;lon;timestamp;P1;durP1;ratioP1;P2;durP2;ratioP2
28519;SDS011;15732;48.534;20.382;2022-09-13T00:00:16;1.77;;;0.77;;
28519;SDS011;15732;48.534;20.382;2022-09-13T00:02:44;1.95;;;0.82;;
28519;SDS011;15732;48.534;20.382;2022-09-13T00:05:11;1.52;;;0.70;;
28519;SDS011;15732;48.534;20.382;2022-09-13T00:07:38;3.15;;;0.90;;
28519;SDS011;15732;48.534;20.382;2022-09-13T00:10:06;1.52;;;0.80;;
28519;SDS011;15732;48.534;20.382;2022-09-13T00:12:34;1.40;;;0.63;;
28519;SDS011;15732;48.534;20.382;2022-09-13T00:15:02;0.88;;;0.57;;
28519;SDS011;15732;48.534;20.382;2022-09-13T00:17:30;5.03;;;0.80;;
28519;SDS011;15732;48.534;20.382;2022-09-13T00:19:57;1.95;;;0.88;;
28519;SDS011;15732;48.534;20.382;2022-09-13T00:22:25;1.27;;;0.70;;
28519;SDS011;15732;48.534;20.382;2022-09-13T00:24:52;1.23;;;0.70;;
28519;SDS011;15732;48.534;20.382;2022-09-13T00:27:19;1.27;;;0.73;;
28519;SDS011;15732;48.534;20.382;2022-09-13T00:29:47;1.83;;;0.90;;
28519;SDS011;15732;48.534;20.382;2022-09-13T00:32:19;3.17;;;1.08;;
28519;SDS011;15732;48.534;20.382;2022-09-13T00:34:46;3.03;;;1.00;;
28519;SDS011;15732;48.534;20.382;2022-09-13T00:37:17;1.52;;;0.82;;
28519;SDS011;15732;48.534;20.382;2022-09-13T00:39:45;0.93;;;0.63;;
28519;SDS011;15732;48.534;20.382;2022-09-13T00:42:13;0.90;;;0.55;;
28519;SDS011;15732;48.534;20.382;2022-09-13T00:47:15;1.70;;;0.60;;
28519;SDS011;15732;48.534;20.382;2022-09-13T00:49:46;2.72;;;1.02;;
28519;SDS011;15732;48.534;20.382;2022-09-13T00:52:16;1.33;;;0.70;;
28519;SDS011;15732;48.534;20.382;2022-09-13T00:54:48;2.85;;;0.93;;
28519;SDS011;15732;48.534;20.382;2022-09-13T00:57:27;1.92;;;1.00;;
28519;SDS011;15732;48.534;20.382;2022-09-13T01:00:02;3.58;;;0.93;;
28519;SDS011;15732;48.534;20.382;2022-09-13T01:02:37;2.38;;;0.80;;
28519;SDS011;15732;48.534;20.382;2022-09-13T01:05:13;0.98;;;0.40;;
28519;SDS011;15732;48.534;20.382;2022-09-13T01:07:46;0.98;;;0.55;;
28519;SDS011;15732;48.534;20.382;2022-09-13T01:10:13;3.17;;;0.80;;
28519;SDS011;15732;48.534;20.382;2022-09-13T01:15:13;1.30;;;0.70;;
28519;SDS011;15732;48.534;20.382;2022-09-13T01:17:44;2.25;;;0.93;;
28519;SDS011;15732;48.534;20.382;2022-09-13T01:20:12;1.48;;;0.90;;
28519;SDS011;15732;48.534;20.382;2022-09-13T01:28:22;2.17;;;1.17;;
28519;SDS011;15732;48.534;20.382;2022-09-13T01:31:28;3.15;;;0.90;;
28519;SDS011;15732;48.534;20.382;2022-09-13T01:42:26;3.22;;;1.17;;
28519;SDS011;15732;48.534;20.382;2022-09-13T01:48:01;3.53;;;1.33;;
28519;SDS011;15732;48.534;20.382;2022-09-13T01:53:30;14.50;;;1.27;;
28519;SDS011;15732;48.534;20.382;2022-09-13T01:56:16;2.90;;;0.80;;
28519;SDS011;15732;48.534;20.382;2022-09-13T01:58:56;3.72;;;1.42;;
28519;SDS011;15732;48.534;20.382;2022-09-13T02:01:27;3.33;;;1.25;;
28519;SDS011;15732;48.534;20.382;2022-09-13T02:03:59;2.00;;;0.60;;
28519;SDS011;15732;48.534;20.382;2022-09-13T02:06:37;1.48;;;0.70;;
28519;SDS011;15732;48.534;20.382;2022-09-13T02:09:11;1.20;;;0.60;;
28519;SDS011;15732;48.534;20.382;2022-09-13T02:11:46;1.38;;;0.50;;
28519;SDS011;15732;48.534;20.382;2022-09-13T02:14:26;2.28;;;0.80;;
28519;SDS011;15732;48.534;20.382;2022-09-13T02:17:00;3.58;;;1.05;;
28519;SDS011;15732;48.534;20.382;2022-09-13T02:19:32;2.15;;;0.95;;
28519;SDS011;15732;48.534;20.382;2022-09-13T02:22:30;5.25;;;0.70;;
28519;SDS011;15732;48.534;20.382;2022-09-13T02:25:06;1.65;;;0.70;;
28519;SDS011;15732;48.534;20.382;2022-09-13T02:27:54;1.20;;;0.68;;
28519;SDS011;15732;48.534;20.382;2022-09-13T02:30:29;1.52;;;0.90;;
28519;SDS011;15732;48.534;20.382;2022-09-13T02:33:06;2.35;;;1.02;;
28519;SDS011;15732;48.534;20.382;2022-09-13T02:35:44;2.63;;;1.10;;
28519;SDS011;15732;48.534;20.382;2022-09-13T02:38:42;1.67;;;0.80;;
28519;SDS011;15732;48.534;20.382;2022-09-13T02:41:26;3.90;;;0.75;;
28519;SDS011;15732;48.534;20.382;2022-09-13T02:44:06;1.42;;;0.70;;
28519;SDS011;15732;48.534;20.382;2022-09-13T02:47:02;1.13;;;0.60;;
28519;SDS011;15732;48.534;20.382;2022-09-13T02:52:07;1.45;;;0.68;;
28519;SDS011;15732;48.534;20.382;2022-09-13T02:54:49;1.80;;;0.90;;
28519;SDS011;15732;48.534;20.382;2022-09-13T02:57:41;1.20;;;0.70;;
28519;SDS011;15732;48.534;20.382;2022-09-13T03:00:31;2.05;;;0.80;;
28519;SDS011;15732;48.534;20.382;2022-09-13T03:03:00;1.10;;;0.60;;
28519;SDS011;15732;48.534;20.382;2022-09-13T03:05:30;1.63;;;0.50;;
28519;SDS011;15732;48.534;20.382;2022-09-13T03:07:58;1.50;;;0.70;;
28519;SDS011;15732;48.534;20.382;2022-09-13T03:10:26;1.00;;;0.60;;
28519;SDS011;15732;48.534;20.382;2022-09-13T03:26:19;1.73;;;0.65;;
28519;SDS011;15732;48.534;20.382;2022-09-13T03:29:08;1.20;;;0.68;;
28519;SDS011;15732;48.534;20.382;2022-09-13T03:32:00;1.55;;;0.50;;
28519;SDS011;15732;48.534;20.382;2022-09-13T03:40:15;1.85;;;0.80;;
28519;SDS011;15732;48.534;20.382;2022-09-13T03:42:57;2.60;;;1.30;;
28519;SDS011;15732;48.534;20.382;2022-09-13T03:45:41;2.13;;;0.85;;
28519;SDS011;15732;48.534;20.382;2022-09-13T03:48:18;2.00;;;0.80;;
28519;SDS011;15732;48.534;20.382;2022-09-13T03:53:18;1.83;;;0.88;;
28519;SDS011;15732;48.534;20.382;2022-09-13T03:55:54;1.00;;;0.60;;
28519;SDS011;15732;48.534;20.382;2022-09-13T03:58:24;2.30;;;0.95;;
28519;SDS011;15732;48.534;20.382;2022-09-13T04:00:56;2.30;;;0.93;;
28519;SDS011;15732;48.534;20.382;2022-09-13T04:03:27;2.50;;;1.02;;
28519;SDS011;15732;48.534;20.382;2022-09-13T04:05:54;0.90;;;0.57;;
28519;SDS011;15732;48.534;20.382;2022-09-13T04:08:22;7.50;;;0.85;;
28519;SDS011;15732;48.534;20.382;2022-09-13T04:10:49;2.25;;;0.70;;
28519;SDS011;15732;48.534;20.382;2022-09-13T04:13:17;1.97;;;1.00;;
28519;SDS011;15732;48.534;20.382;2022-09-13T04:18:12;1.73;;;1.00;;
28519;SDS011;15732;48.534;20.382;2022-09-13T04:20:40;1.63;;;0.77;;
28519;SDS011;15732;48.534;20.382;2022-09-13T04:23:07;3.00;;;0.73;;
28519;SDS011;15732;48.534;20.382;2022-09-13T04:25:37;1.40;;;0.75;;
28519;SDS011;15732;48.534;20.382;2022-09-13T04:28:05;2.35;;;0.98;;
28519;SDS011;15732;48.534;20.382;2022-09-13T04:30:32;2.38;;;0.70;;
28519;SDS011;15732;48.534;20.382;2022-09-13T04:33:00;2.15;;;1.02;;
28519;SDS011;15732;48.534;20.382;2022-09-13T04:35:27;1.77;;;0.98;;
28519;SDS011;15732;48.534;20.382;2022-09-13T04:37:55;2.25;;;0.70;;
28519;SDS011;15732;48.534;20.382;2022-09-13T04:40:25;3.10;;;0.82;;
28519;SDS011;15732;48.534;20.382;2022-09-13T04:42:54;1.40;;;0.80;;
28519;SDS011;15732;48.534;20.382;2022-09-13T04:45:21;1.20;;;0.70;;
28519;SDS011;15732;48.534;20.382;2022-09-13T04:47:50;2.13;;;0.93;;
28519;SDS011;15732;48.534;20.382;2022-09-13T04:50:19;2.25;;;0.90;;
28519;SDS011;15732;48.534;20.382;2022-09-13T04:52:47;1.58;;;0.82;;
28519;SDS011;15732;48.534;20.382;2022-09-13T04:55:14;2.00;;;1.10;;
28519;SDS011;15732;48.534;20.382;2022-09-13T04:57:42;1.73;;;0.98;;
28519;SDS011;15732;48.534;20.382;2022-09-13T05:00:13;2.10;;;0.80;;
28519;SDS011;15732;48.534;20.382;2022-09-13T05:02:41;1.02;;;0.60;;
28519;SDS011;15732;48.534;20.382;2022-09-13T05:05:09;1.37;;;0.90;;
28519;SDS011;15732;48.534;20.382;2022-09-13T05:07:36;2.45;;;0.65;;
28519;SDS011;15732;48.534;20.382;2022-09-13T05:10:04;1.30;;;0.60;;
28519;SDS011;15732;48.534;20.382;2022-09-13T05:12:34;2.25;;;1.00;;
28519;SDS011;15732;48.534;20.382;2022-09-13T05:15:02;2.25;;;0.93;;
28519;SDS011;15732;48.534;20.382;2022-09-13T05:17:31;2.17;;;0.90;;
28519;SDS011;15732;48.534;20.382;2022-09-13T05:19:59;0.65;;;0.50;;
28519;SDS011;15732;48.534;20.382;2022-09-13T05:22:27;5.30;;;1.87;;
28519;SDS011;15732;48.534;20.382;2022-09-13T05:24:54;1.88;;;0.77;;
28519;SDS011;15732;48.534;20.382;2022-09-13T05:27:22;1.90;;;0.70;;
28519;SDS011;15732;48.534;20.382;2022-09-13T05:29:49;3.20;;;1.00;;
28519;SDS011;15732;48.534;20.382;2022-09-13T05:32:16;2.35;;;0.75;;
28519;SDS011;15732;48.534;20.382;2022-09-13T05:34:44;3.78;;;0.65;;
28519;SDS011;15732;48.534;20.382;2022-09-13T05:37:12;1.50;;;0.73;;
28519;SDS011;15732;48.534;20.382;2022-09-13T05:39:40;2.10;;;1.00;;
28519;SDS011;15732;48.534;20.382;2022-09-13T05:42:07;1.92;;;0.65;;
28519;SDS011;15732;48.534;20.382;2022-09-13T05:44:34;3.25;;;0.90;;
28519;SDS011;15732;48.534;20.382;2022-09-13T05:47:02;3.13;;;1.10;;
28519;SDS011;15732;48.534;20.382;2022-09-13T05:49:30;2.90;;;1.15;;
28519;SDS011;15732;48.534;20.382;2022-09-13T05:51:58;2.40;;;0.98;;
28519;SDS011;15732;48.534;20.382;2022-09-13T05:54:25;2.72;;;1.00;;
28519;SDS011;15732;48.534;20.382;2022-09-13T05:56:56;1.50;;;0.90;;
28519;SDS011;15732;48.534;20.382;2022-09-13T05:59:24;3.92;;;1.05;;
28519;SDS011;15732;48.534;20.382;2022-09-13T06:01:51;4.30;;;0.85;;
28519;SDS011;15732;48.534;20.382;2022-09-13T06:04:23;1.02;;;0.60;;
28519;SDS011;15732;48.534;20.382;2022-09-13T06:06:50;2.05;;;1.02;;
28519;SDS011;15732;48.534;20.382;2022-09-13T06:09:18;1.40;;;0.63;;
28519;SDS011;15732;48.534;20.382;2022-09-13T06:11:49;1.77;;;0.95;;
28519;SDS011;15732;48.534;20.382;2022-09-13T06:14:16;7.35;;;1.00;;
28519;SDS011;15732;48.534;20.382;2022-09-13T06:16:48;2.97;;;1.10;;
28519;SDS011;15732;48.534;20.382;2022-09-13T06:19:15;6.20;;;0.90;;
28519;SDS011;15732;48.534;20.382;2022-09-13T06:21:43;4.43;;;0.68;;
28519;SDS011;15732;48.534;20.382;2022-09-13T06:24:10;1.35;;;0.60;;
28519;SDS011;15732;48.534;20.382;2022-09-13T06:26:42;2.28;;;0.90;;
28519;SDS011;15732;48.534;20.382;2022-09-13T06:29:09;1.17;;;0.60;;
28519;SDS011;15732;48.534;20.382;2022-09-13T06:31:40;2.03;;;1.20;;
28519;SDS011;15732;48.534;20.382;2022-09-13T06:34:10;1.23;;;0.65;;
28519;SDS011;15732;48.534;20.382;2022-09-13T06:36:42;1.60;;;0.88;;
28519;SDS011;15732;48.534;20.382;2022-09-13T06:39:09;1.98;;;0.90;;
28519;SDS011;15732;48.534;20.382;2022-09-13T06:41:37;2.28;;;0.90;;
28519;SDS011;15732;48.534;20.382;2022-09-13T06:44:04;1.45;;;0.80;;
28519;SDS011;15732;48.534;20.382;2022-09-13T06:46:35;1.17;;;0.73;;
28519;SDS011;15732;48.534;20.382;2022-09-13T06:49:06;1.77;;;0.93;;
28519;SDS011;15732;48.534;20.382;2022-09-13T06:51:34;1.27;;;0.70;;
28519;SDS011;15732;48.534;20.382;2022-09-13T06:54:05;1.38;;;0.65;;
28519;SDS011;15732;48.534;20.382;2022-09-13T06:56:34;5.82;;;0.95;;
28519;SDS011;15732;48.534;20.382;2022-09-13T06:59:03;1.65;;;1.00;;
28519;SDS011;15732;48.534;20.382;2022-09-13T07:01:32;1.90;;;0.98;;
28519;SDS011;15732;48.534;20.382;2022-09-13T07:04:09;4.88;;;1.10;;
28519;SDS011;15732;48.534;20.382;2022-09-13T07:06:45;1.58;;;0.90;;
28519;SDS011;15732;48.534;20.382;2022-09-13T07:09:15;1.95;;;0.93;;
28519;SDS011;15732;48.534;20.382;2022-09-13T07:11:44;2.67;;;1.10;;
28519;SDS011;15732;48.534;20.382;2022-09-13T07:14:13;1.88;;;0.80;;
28519;SDS011;15732;48.534;20.382;2022-09-13T07:16:42;1.65;;;0.80;;
28519;SDS011;15732;48.534;20.382;2022-09-13T07:19:15;1.75;;;0.82;;
28519;SDS011;15732;48.534;20.382;2022-09-13T07:21:45;1.85;;;0.73;;
28519;SDS011;15732;48.534;20.382;2022-09-13T07:24:17;2.42;;;1.15;;
28519;SDS011;15732;48.534;20.382;2022-09-13T07:26:45;1.40;;;0.70;;
28519;SDS011;15732;48.534;20.382;2022-09-13T07:29:14;2.08;;;0.90;;
28519;SDS011;15732;48.534;20.382;2022-09-13T07:31:45;1.15;;;0.68;;
28519;SDS011;15732;48.534;20.382;2022-09-13T07:34:20;1.48;;;0.80;;
28519;SDS011;15732;48.534;20.382;2022-09-13T07:36:48;1.00;;;0.55;;
28519;SDS011;15732;48.534;20.382;2022-09-13T07:39:17;1.88;;;0.75;;
28519;SDS011;15732;48.534;20.382;2022-09-13T07:41:45;2.53;;;1.08;;
28519;SDS011;15732;48.534;20.382;2022-09-13T07:44:13;2.05;;;0.55;;
28519;SDS011;15732;48.534;20.382;2022-09-13T07:46:44;1.13;;;0.60;;
28519;SDS011;15732;48.534;20.382;2022-09-13T07:49:16;2.88;;;0.90;;
28519;SDS011;15732;48.534;20.382;2022-09-13T07:51:44;5.32;;;1.05;;
28519;SDS011;15732;48.534;20.382;2022-09-13T07:54:12;1.65;;;0.70;;
28519;SDS011;15732;48.534;20.382;2022-09-13T07:56:41;1.48;;;0.73;;
28519;SDS011;15732;48.534;20.382;2022-09-13T07:59:12;2.05;;;0.73;;
28519;SDS011;15732;48.534;20.382;2022-09-13T08:01:41;2.58;;;1.02;;
28519;SDS011;15732;48.534;20.382;2022-09-13T08:04:11;1.33;;;0.82;;
28519;SDS011;15732;48.534;20.382;2022-09-13T08:06:54;1.75;;;0.93;;
28519;SDS011;15732;48.534;20.382;2022-09-13T08:09:22;3.33;;;1.50;;
28519;SDS011;15732;48.534;20.382;2022-09-13T08:11:50;1.95;;;1.02;;
28519;SDS011;15732;48.534;20.382;2022-09-13T08:14:21;1.85;;;0.68;;
28519;SDS011;15732;48.534;20.382;2022-09-13T08:16:49;0.80;;;0.52;;
28519;SDS011;15732;48.534;20.382;2022-09-13T08:19:17;1.87;;;0.90;;
28519;SDS011;15732;48.534;20.382;2022-09-13T08:21:48;1.23;;;0.60;;
28519;SDS011;15732;48.534;20.382;2022-09-13T08:24:16;2.47;;;1.08;;
28519;SDS011;15732;48.534;20.382;2022-09-13T08:26:46;1.52;;;0.63;;
28519;SDS011;15732;48.534;20.382;2022-09-13T08:29:14;1.73;;;0.57;;
28519;SDS011;15732;48.534;20.382;2022-09-13T08:31:41;1.57;;;0.83;;
28519;SDS011;15732;48.534;20.382;2022-09-13T08:34:13;2.28;;;0.95;;
28519;SDS011;15732;48.534;20.382;2022-09-13T08:39:08;1.58;;;0.70;;
28519;SDS011;15732;48.534;20.382;2022-09-13T08:49:38;1.38;;;0.70;;
28519;SDS011;15732;48.534;20.382;2022-09-13T08:54:48;2.40;;;0.88;;
28519;SDS011;15732;48.534;20.382;2022-09-13T08:57:19;1.23;;;0.63;;
28519;SDS011;15732;48.534;20.382;2022-09-13T09:02:47;1.48;;;0.77;;
28519;SDS011;15732;48.534;20.382;2022-09-13T09:05:29;2.55;;;0.90;;
28519;SDS011;15732;48.534;20.382;2022-09-13T09:10:47;2.95;;;1.00;;
28519;SDS011;15732;48.534;20.382;2022-09-13T09:15:48;1.60;;;0.73;;
28519;SDS011;15732;48.534;20.382;2022-09-13T09:20:52;2.50;;;0.98;;
28519;SDS011;15732;48.534;20.382;2022-09-13T09:26:28;1.67;;;0.73;;
28519;SDS011;15732;48.534;20.382;2022-09-13T09:29:00;3.65;;;1.08;;
28519;SDS011;15732;48.534;20.382;2022-09-13T09:37:02;1.70;;;0.75;;
28519;SDS011;15732;48.534;20.382;2022-09-13T09:40:03;2.33;;;0.88;;
28519;SDS011;15732;48.534;20.382;2022-09-13T09:42:37;1.75;;;1.05;;
28519;SDS011;15732;48.534;20.382;2022-09-13T09:45:24;2.97;;;0.90;;
28519;SDS011;15732;48.534;20.382;2022-09-13T09:50:37;1.27;;;0.73;;
28519;SDS011;15732;48.534;20.382;2022-09-13T09:53:15;2.90;;;0.90;;
28519;SDS011;15732;48.534;20.382;2022-09-13T09:55:58;1.17;;;0.60;;
28519;SDS011;15732;48.534;20.382;2022-09-13T09:58:38;1.42;;;0.90;;
28519;SDS011;15732;48.534;20.382;2022-09-13T10:01:40;1.75;;;1.00;;
28519;SDS011;15732;48.534;20.382;2022-09-13T10:04:17;3.08;;;1.00;;
28519;SDS011;15732;48.534;20.382;2022-09-13T10:07:37;1.52;;;0.75;;
28519;SDS011;15732;48.534;20.382;2022-09-13T10:09:59;2.08;;;1.00;;
28519;SDS011;15732;48.534;20.382;2022-09-13T10:12:34;0.75;;;0.40;;
28519;SDS011;15732;48.534;20.382;2022-09-13T10:15:14;1.58;;;0.80;;
28519;SDS011;15732;48.534;20.382;2022-09-13T10:20:31;1.77;;;0.80;;
28519;SDS011;15732;48.534;20.382;2022-09-13T10:23:08;1.65;;;0.63;;
28519;SDS011;15732;48.534;20.382;2022-09-13T10:25:36;3.58;;;1.33;;
28519;SDS011;15732;48.534;20.382;2022-09-13T10:28:04;1.80;;;0.98;;
28519;SDS011;15732;48.534;20.382;2022-09-13T10:30:37;1.98;;;0.82;;
28519;SDS011;15732;48.534;20.382;2022-09-13T10:36:14;5.20;;;1.20;;
28519;SDS011;15732;48.534;20.382;2022-09-13T10:38:50;1.02;;;0.50;;
28519;SDS011;15732;48.534;20.382;2022-09-13T10:41:33;2.05;;;0.85;;
28519;SDS011;15732;48.534;20.382;2022-09-13T10:44:23;3.83;;;1.23;;
28519;SDS011;15732;48.534;20.382;2022-09-13T10:46:58;2.72;;;1.05;;
28519;SDS011;15732;48.534;20.382;2022-09-13T10:49:36;2.70;;;0.98;;
28519;SDS011;15732;48.534;20.382;2022-09-13T10:52:25;2.08;;;0.95;;
28519;SDS011;15732;48.534;20.382;2022-09-13T10:57:53;2.63;;;1.13;;
28519;SDS011;15732;48.534;20.382;2022-09-13T11:00:28;2.58;;;0.88;;
28519;SDS011;15732;48.534;20.382;2022-09-13T11:05:51;1.85;;;0.77;;
28519;SDS011;15732;48.534;20.382;2022-09-13T11:19:39;1.88;;;0.95;;
28519;SDS011;15732;48.534;20.382;2022-09-13T11:25:03;1.27;;;0.73;;
28519;SDS011;15732;48.534;20.382;2022-09-13T11:57:06;1.85;;;0.70;;
28519;SDS011;15732;48.534;20.382;2022-09-13T11:59:49;1.60;;;0.85;;
28519;SDS011;15732;48.534;20.382;2022-09-13T12:04:53;1.20;;;0.45;;
28519;SDS011;15732;48.534;20.382;2022-09-13T12:07:30;1.33;;;0.75;;
28519;SDS011;15732;48.534;20.382;2022-09-13T12:10:14;1.30;;;0.70;;
28519;SDS011;15732;48.534;20.382;2022-09-13T12:12:57;2.05;;;0.90;;
28519;SDS011;15732;48.534;20.382;2022-09-13T12:15:35;1.00;;;0.55;;
28519;SDS011;15732;48.534;20.382;2022-09-13T12:18:14;1.38;;;0.65;;
28519;SDS011;15732;48.534;20.382;2022-09-13T12:23:38;0.93;;;0.60;;
28519;SDS011;15732;48.534;20.382;2022-09-13T12:26:35;3.65;;;1.48;;
28519;SDS011;15732;48.534;20.382;2022-09-13T12:29:13;4.85;;;0.85;;
28519;SDS011;15732;48.534;20.382;2022-09-13T12:32:05;2.40;;;0.40;;
28519;SDS011;15732;48.534;20.382;2022-09-13T12:34:37;1.10;;;0.52;;
28519;SDS011;15732;48.534;20.382;2022-09-13T12:37:19;5.53;;;0.70;;
28519;SDS011;15732;48.534;20.382;2022-09-13T12:50:48;1.42;;;0.60;;
28519;SDS011;15732;48.534;20.382;2022-09-13T13:02:02;2.72;;;0.90;;
28519;SDS011;15732;48.534;20.382;2022-09-13T13:04:55;0.98;;;0.50;;
28519;SDS011;15732;48.534;20.382;2022-09-13T13:07:26;1.95;;;0.85;;
28519;SDS011;15732;48.534;20.382;2022-09-13T13:09:56;1.58;;;0.88;;
28519;SDS011;15732;48.534;20.382;2022-09-13T13:12:27;1.23;;;0.70;;
28519;SDS011;15732;48.534;20.382;2022-09-13T13:23:36;1.02;;;0.50;;
28519;SDS011;15732;48.534;20.382;2022-09-13T13:26:48;3.88;;;0.52;;
28519;SDS011;15732;48.534;20.382;2022-09-13T13:37:03;1.08;;;0.57;;
28519;SDS011;15732;48.534;20.382;2022-09-13T13:40:10;0.93;;;0.60;;
28519;SDS011;15732;48.534;20.382;2022-09-13T13:42:48;1.02;;;0.57;;
28519;SDS011;15732;48.534;20.382;2022-09-13T13:45:17;4.70;;;0.70;;
28519;SDS011;15732;48.534;20.382;2022-09-13T13:53:37;2.33;;;0.88;;
28519;SDS011;15732;48.534;20.382;2022-09-13T13:56:24;3.55;;;1.17;;
28519;SDS011;15732;48.534;20.382;2022-09-13T13:59:03;3.92;;;0.57;;
28519;SDS011;15732;48.534;20.382;2022-09-13T14:01:43;1.27;;;0.63;;
28519;SDS011;15732;48.534;20.382;2022-09-13T14:10:19;2.25;;;0.88;;
28519;SDS011;15732;48.534;20.382;2022-09-13T14:12:41;1.38;;;0.57;;
28519;SDS011;15732;48.534;20.382;2022-09-13T14:21:34;1.95;;;0.73;;
28519;SDS011;15732;48.534;20.382;2022-09-13T14:26:38;3.17;;;1.05;;
28519;SDS011;15732;48.534;20.382;2022-09-13T14:29:07;1.35;;;0.80;;
28519;SDS011;15732;48.534;20.382;2022-09-13T14:31:34;1.45;;;0.63;;
28519;SDS011;15732;48.534;20.382;2022-09-13T14:34:02;2.00;;;0.63;;
28519;SDS011;15732;48.534;20.382;2022-09-13T14:36:30;0.90;;;0.53;;
28519;SDS011;15732;48.534;20.382;2022-09-13T14:38:58;0.83;;;0.40;;
28519;SDS011;15732;48.534;20.382;2022-09-13T14:41:32;1.50;;;0.63;;
28519;SDS011;15732;48.534;20.382;2022-09-13T14:44:24;1.40;;;0.63;;
28519;SDS011;15732;48.534;20.382;2022-09-13T14:49:40;1.73;;;0.68;;
28519;SDS011;15732;48.534;20.382;2022-09-13T14:52:28;1.58;;;0.77;;
28519;SDS011;15732;48.534;20.382;2022-09-13T14:55:07;2.05;;;0.60;;
28519;SDS011;15732;48.534;20.382;2022-09-13T14:57:42;1.23;;;0.43;;
28519;SDS011;15732;48.534;20.382;2022-09-13T15:00:18;1.15;;;0.43;;
28519;SDS011;15732;48.534;20.382;2022-09-13T15:02:48;0.93;;;0.47;;
28519;SDS011;15732;48.534;20.382;2022-09-13T15:05:29;0.70;;;0.40;;
28519;SDS011;15732;48.534;20.382;2022-09-13T15:11:00;3.92;;;0.80;;
28519;SDS011;15732;48.534;20.382;2022-09-13T15:13:30;0.93;;;0.52;;
28519;SDS011;15732;48.534;20.382;2022-09-13T15:15:58;2.40;;;0.50;;
28519;SDS011;15732;48.534;20.382;2022-09-13T15:18:28;1.30;;;0.57;;
28519;SDS011;15732;48.534;20.382;2022-09-13T15:21:00;1.48;;;0.80;;
28519;SDS011;15732;48.534;20.382;2022-09-13T15:26:18;2.00;;;0.90;;
28519;SDS011;15732;48.534;20.382;2022-09-13T15:31:20;1.65;;;0.60;;
28519;SDS011;15732;48.534;20.382;2022-09-13T15:39:26;2.30;;;0.77;;
28519;SDS011;15732;48.534;20.382;2022-09-13T15:41:57;3.55;;;0.77;;
28519;SDS011;15732;48.534;20.382;2022-09-13T15:44:29;2.13;;;1.00;;
28519;SDS011;15732;48.534;20.382;2022-09-13T15:47:36;5.47;;;1.73;;
28519;SDS011;15732;48.534;20.382;2022-09-13T15:50:46;4.05;;;1.90;;
28519;SDS011;15732;48.534;20.382;2022-09-13T15:53:32;2.67;;;0.95;;
28519;SDS011;15732;48.534;20.382;2022-09-13T15:56:40;2.80;;;1.02;;
28519;SDS011;15732;48.534;20.382;2022-09-13T15:59:25;2.17;;;0.90;;
28519;SDS011;15732;48.534;20.382;2022-09-13T16:04:50;3.42;;;1.35;;
28519;SDS011;15732;48.534;20.382;2022-09-13T16:07:17;1.35;;;0.77;;
28519;SDS011;15732;48.534;20.382;2022-09-13T16:09:45;5.32;;;1.95;;
28519;SDS011;15732;48.534;20.382;2022-09-13T16:12:42;2.70;;;1.13;;
28519;SDS011;15732;48.534;20.382;2022-09-13T16:15:09;3.95;;;1.65;;
28519;SDS011;15732;48.534;20.382;2022-09-13T16:17:59;2.50;;;0.82;;
28519;SDS011;15732;48.534;20.382;2022-09-13T16:21:06;2.65;;;0.98;;
28519;SDS011;15732;48.534;20.382;2022-09-13T16:24:13;1.38;;;0.65;;
28519;SDS011;15732;48.534;20.382;2022-09-13T16:27:23;3.65;;;1.00;;
28519;SDS011;15732;48.534;20.382;2022-09-13T16:30:12;3.20;;;1.33;;
28519;SDS011;15732;48.534;20.382;2022-09-13T16:32:40;2.47;;;0.80;;
28519;SDS011;15732;48.534;20.382;2022-09-13T16:35:08;2.38;;;1.17;;
28519;SDS011;15732;48.534;20.382;2022-09-13T16:37:55;2.35;;;1.20;;
28519;SDS011;15732;48.534;20.382;2022-09-13T16:40:22;4.18;;;1.17;;
28519;SDS011;15732;48.534;20.382;2022-09-13T16:42:52;2.38;;;0.88;;
28519;SDS011;15732;48.534;20.382;2022-09-13T16:45:20;2.83;;;0.90;;
28519;SDS011;15732;48.534;20.382;2022-09-13T16:47:57;3.60;;;1.00;;
28519;SDS011;15732;48.534;20.382;2022-09-13T16:50:28;1.70;;;0.80;;
28519;SDS011;15732;48.534;20.382;2022-09-13T16:52:56;1.95;;;0.80;;
28519;SDS011;15732;48.534;20.382;2022-09-13T16:55:23;4.00;;;1.37;;
28519;SDS011;15732;48.534;20.382;2022-09-13T16:57:55;1.73;;;0.60;;
28519;SDS011;15732;48.534;20.382;2022-09-13T17:00:22;1.77;;;0.50;;
28519;SDS011;15732;48.534;20.382;2022-09-13T17:02:54;1.38;;;0.60;;
28519;SDS011;15732;48.534;20.382;2022-09-13T17:05:22;1.55;;;0.60;;
28519;SDS011;15732;48.534;20.382;2022-09-13T17:07:53;1.88;;;0.75;;
28519;SDS011;15732;48.534;20.382;2022-09-13T17:10:20;2.38;;;0.95;;
28519;SDS011;15732;48.534;20.382;2022-09-13T17:12:52;3.08;;;0.77;;
28519;SDS011;15732;48.534;20.382;2022-09-13T17:15:19;5.85;;;0.85;;
28519;SDS011;15732;48.534;20.382;2022-09-13T17:17:51;7.18;;;0.80;;
28519;SDS011;15732;48.534;20.382;2022-09-13T17:20:22;4.10;;;0.90;;
28519;SDS011;15732;48.534;20.382;2022-09-13T17:22:49;3.00;;;1.08;;
28519;SDS011;15732;48.534;20.382;2022-09-13T17:25:17;4.05;;;1.45;;
28519;SDS011;15732;48.534;20.382;2022-09-13T17:27:45;6.47;;;2.20;;
28519;SDS011;15732;48.534;20.382;2022-09-13T17:30:13;5.70;;;2.43;;
28519;SDS011;15732;48.534;20.382;2022-09-13T17:32:40;6.22;;;2.15;;
28519;SDS011;15732;48.534;20.382;2022-09-13T17:35:08;5.28;;;2.15;;
28519;SDS011;15732;48.534;20.382;2022-09-13T17:37:40;7.15;;;2.53;;
28519;SDS011;15732;48.534;20.382;2022-09-13T17:40:07;2.13;;;1.10;;
28519;SDS011;15732;48.534;20.382;2022-09-13T17:42:35;3.47;;;1.63;;
28519;SDS011;15732;48.534;20.382;2022-09-13T17:45:03;5.97;;;1.63;;
28519;SDS011;15732;48.534;20.382;2022-09-13T17:47:31;4.65;;;1.98;;
28519;SDS011;15732;48.534;20.382;2022-09-13T17:49:59;7.10;;;2.60;;
28519;SDS011;15732;48.534;20.382;2022-09-13T17:52:27;12.40;;;4.68;;
28519;SDS011;15732;48.534;20.382;2022-09-13T17:54:54;11.38;;;4.65;;
28519;SDS011;15732;48.534;20.382;2022-09-13T17:57:25;8.82;;;3.83;;
28519;SDS011;15732;48.534;20.382;2022-09-13T17:59:53;6.85;;;2.75;;
28519;SDS011;15732;48.534;20.382;2022-09-13T18:02:20;5.40;;;2.80;;
28519;SDS011;15732;48.534;20.382;2022-09-13T18:04:54;6.95;;;2.20;;
28519;SDS011;15732;48.534;20.382;2022-09-13T18:07:22;6.47;;;2.67;;
28519;SDS011;15732;48.534;20.382;2022-09-13T18:09:53;5.57;;;2.17;;
28519;SDS011;15732;48.534;20.382;2022-09-13T18:12:21;4.28;;;1.98;;
28519;SDS011;15732;48.534;20.382;2022-09-13T18:14:48;2.87;;;1.33;;
28519;SDS011;15732;48.534;20.382;2022-09-13T18:17:20;2.40;;;0.95;;
28519;SDS011;15732;48.534;20.382;2022-09-13T18:19:47;2.17;;;0.85;;
28519;SDS011;15732;48.534;20.382;2022-09-13T18:22:19;1.98;;;0.98;;
28519;SDS011;15732;48.534;20.382;2022-09-13T18:24:47;6.33;;;2.10;;
28519;SDS011;15732;48.534;20.382;2022-09-13T18:27:14;6.00;;;2.27;;
28519;SDS011;15732;48.534;20.382;2022-09-13T18:29:42;2.40;;;1.33;;
28519;SDS011;15732;48.534;20.382;2022-09-13T18:32:09;8.30;;;3.45;;
28519;SDS011;15732;48.534;20.382;2022-09-13T18:34:36;4.75;;;2.08;;
28519;SDS011;15732;48.534;20.382;2022-09-13T18:37:04;9.88;;;2.40;;
28519;SDS011;15732;48.534;20.382;2022-09-13T18:39:31;5.90;;;2.77;;
28519;SDS011;15732;48.534;20.382;2022-09-13T18:42:03;12.13;;;3.80;;
28519;SDS011;15732;48.534;20.382;2022-09-13T18:44:31;3.08;;;1.48;;
28519;SDS011;15732;48.534;20.382;2022-09-13T18:46:59;2.72;;;1.13;;
28519;SDS011;15732;48.534;20.382;2022-09-13T18:49:27;4.03;;;1.65;;
28519;SDS011;15732;48.534;20.382;2022-09-13T18:51:55;1.40;;;0.80;;